Impacts METAR Board
IDs:

KHBG - Hattiesburg/Chain Mu, MS, US

Updated at: 1200 UTC 20 May 2018
Potential Impact None Slight Moderate High
Time 20/00Z 20/01Z 20/02Z 20/03Z 20/04Z 20/05Z 20/06Z 20/07Z 20/08Z 20/09Z 20/10Z 20/11Z 20/12Z
Temp85 81 80 78 77 76 75 73 70 71 69 69 70
Dewpt70 72 71 72 73 73 72 67 68 68 68 69 68
Altim29.96 30.00 30.02 30.04 30.06 30.06 30.07 30.03 30.06 30.05 30.06 30.07 30.07
VIS10 10 10 10 10 10 10 10 10 10 10 10 10
CIG60 120 -- 90 -- 100 40 70 -- -- -- -- --
CoverBKNBKNSCTOVCFEWBKNBKNBKNSCTCLRCLRCLRCLR
FltCatVFRVFRVFRVFRVFRVFRVFRVFRVFRVFRVFRVFRVFR
WXVCTS----------VCTS-RA----------
WDir210300080130020230120000120
WSpd7 5 0 4 3 0 12 7 4 0 0 0 3
WGst-- -- -- -- -- -- -- -- -- -- -- -- --
Raw hourly METARs
KHBG 192353Z AUTO 21007KT 10SM VCTS BKN060 29/21 A2996 RMK AO2 LTG DSNT W AND NW SLP144 T02940211 10344 20294 53005
KHBG 200053Z AUTO 30005KT 10SM SCT055 SCT090 BKN120 27/22 A3000 RMK AO2 LTG DSNT W-NE SLP154 T02720222
KHBG 200153Z AUTO 00000KT 10SM SCT032 27/22 A3002 RMK AO2 LTG DSNT NW SLP163 T02670217
KHBG 200253Z AUTO 08004KT 10SM SCT070 OVC090 26/22 A3004 RMK AO2 SLP170 T02560222 51026
KHBG 200353Z AUTO 13003KT 10SM FEW110 25/23 A3006 RMK AO2 LTG DSNT NW SLP175 T02500228
KHBG 200453Z AUTO 00000KT 10SM BKN100 24/23 A3006 RMK AO2 LTG DSNT NE SLP177 T02440228
KHBG 200603Z AUTO 02012KT 10SM VCTS SCT022 BKN040 BKN075 24/22 A3007 RMK AO2 LTG DSNT N AND NE T02390222
KHBG 200653Z AUTO 23007KT 10SM -RA SCT031 BKN070 BKN080 23/19 A3003 RMK AO2 LTG DSNT NW-NE RAB46 TSB31E48 SLP165 P0000 T02280194
KHBG 200753Z AUTO 12004KT 10SM SCT023 SCT034 21/20 A3006 RMK AO2 RAE0655 SLP174 P0000 T02110200
KHBG 200853Z AUTO 00000KT 10SM CLR 22/20 A3005 RMK AO2 SLP171 60000 T02170200 56009
KHBG 200953Z AUTO 00000KT 10SM CLR 21/20 A3006 RMK AO2 SLP177 T02060200
KHBG 201053Z AUTO 00000KT 10SM CLR 21/21 A3007 RMK AO2 SLP180 T02060206
KHBG 201153Z AUTO 12003KT 10SM CLR 21/20 A3007 RMK AO2 SLP181 60000 T02110200 10244 20206 51009



Page loaded:  12:13 UTC  |   05:13 AM Pacific  |   06:13 AM Mountain  |   07:13 AM Central  |   08:13 AM Eastern

 

ADVISORIES

FORECASTS

FORECASTS

OBSERVATIONS

USER TOOLS

ABOUT US